createdAt,value
2022-10-20T00:03:34.535Z,12.80
2022-10-20T00:07:35.474Z,13.23
2022-10-20T00:11:36.612Z,12.60
2022-10-20T00:15:37.681Z,13.30
2022-10-20T00:19:38.743Z,14.33
2022-10-20T00:23:40.599Z,11.53
2022-10-20T00:27:41.928Z,14.53
2022-10-20T00:31:43.487Z,13.73
2022-10-20T00:35:44.865Z,12.50
2022-10-20T00:39:45.875Z,11.97
2022-10-20T00:44:07.191Z,17.23
2022-10-20T00:48:14.348Z,12.73
2022-10-20T00:52:19.111Z,11.00
2022-10-20T00:56:20.567Z,11.20
2022-10-20T01:00:21.520Z,13.37
2022-10-20T01:04:23.443Z,12.53
2022-10-20T01:08:24.668Z,11.93
2022-10-20T01:12:35.441Z,15.60
2022-10-20T01:16:40.308Z,15.00
2022-10-20T01:21:04.926Z,14.27
2022-10-20T01:25:12.538Z,14.07
2022-10-20T01:29:25.994Z,12.77
2022-10-20T01:33:43.184Z,14.73
2022-10-20T01:37:54.067Z,13.07
2022-10-20T01:42:02.015Z,14.73
2022-10-20T01:46:04.745Z,14.63
2022-10-20T01:50:07.849Z,14.63
2022-10-20T01:54:24.353Z,15.33
2022-10-20T01:58:44.384Z,13.63
2022-10-20T02:03:05.743Z,13.13
2022-10-20T02:07:16.206Z,14.57
2022-10-20T02:11:47.826Z,14.80
2022-10-20T02:15:52.594Z,14.73
2022-10-20T02:19:54.937Z,16.53
2022-10-20T02:24:00.912Z,16.43
2022-10-20T02:28:03.569Z,14.87
2022-10-20T02:32:05.699Z,16.40
2022-10-20T02:36:10.566Z,15.73
2022-10-20T02:40:12.908Z,14.73
2022-10-20T02:44:13.849Z,15.57
2022-10-20T02:48:14.889Z,15.90
2022-10-20T02:52:15.847Z,14.67
2022-10-20T02:56:16.724Z,14.90
2022-10-20T03:00:17.691Z,14.90
2022-10-20T03:04:19.159Z,16.13
2022-10-20T03:08:20.825Z,16.67
2022-10-20T03:12:21.966Z,12.50
2022-10-20T03:16:23.247Z,18.17
2022-10-20T03:20:24.193Z,13.43
2022-10-20T03:24:25.138Z,13.77
2022-10-20T03:28:26.062Z,14.40
2022-10-20T03:32:26.962Z,16.03
2022-10-20T03:36:28.008Z,15.23
2022-10-20T03:40:29.053Z,14.10
2022-10-20T03:44:30.008Z,14.27
2022-10-20T03:48:30.952Z,13.00
2022-10-20T03:52:31.818Z,15.13
2022-10-20T03:56:32.909Z,14.20
2022-10-20T04:00:33.770Z,14.33
2022-10-20T04:04:34.720Z,16.70
2022-10-20T04:08:35.721Z,16.37
2022-10-20T04:12:37.033Z,17.37
2022-10-20T04:16:38.396Z,19.50
2022-10-20T04:20:42.079Z,17.13
2022-10-20T04:24:42.229Z,17.83
2022-10-20T04:28:43.573Z,20.17
2022-10-20T04:32:44.497Z,16.87
2022-10-20T04:36:45.394Z,16.70
2022-10-20T04:40:50.138Z,14.07
2022-10-20T04:44:51.137Z,15.93
2022-10-20T04:48:53.356Z,17.23
2022-10-20T04:52:54.397Z,13.90
2022-10-20T04:56:55.942Z,17.00
2022-10-20T05:01:03.095Z,15.53
2022-10-20T05:05:04.673Z,16.40
2022-10-20T05:09:06.950Z,16.20
2022-10-20T05:13:07.979Z,17.27
2022-10-20T05:17:10.062Z,16.60
2022-10-20T05:21:14.019Z,16.23
2022-10-20T05:25:35.619Z,16.67
2022-10-20T05:29:18.134Z,17.20
2022-10-20T05:33:19.261Z,19.33
2022-10-20T05:37:23.158Z,19.60
2022-10-20T05:41:28.610Z,18.77
2022-10-20T05:45:29.660Z,19.10
2022-10-20T05:49:30.927Z,19.30
2022-10-20T05:53:31.948Z,18.17
2022-10-20T05:57:32.943Z,18.17
2022-10-20T06:01:49.407Z,20.17
2022-10-20T06:05:54.548Z,21.50
2022-10-20T06:09:55.588Z,21.37
2022-10-20T06:13:56.635Z,21.33
2022-10-20T06:17:57.725Z,20.27
2022-10-20T06:22:03.836Z,19.03
2022-10-20T06:26:05.481Z,21.33
2022-10-20T06:30:07.970Z,20.37
2022-10-20T06:34:13.264Z,21.27
2022-10-20T06:38:14.216Z,20.80
2022-10-20T06:42:15.352Z,21.60
2022-10-20T06:46:17.777Z,20.23
2022-10-20T06:50:19.157Z,20.97
2022-10-20T06:54:20.376Z,18.53
2022-10-20T06:58:21.412Z,20.33
2022-10-20T07:02:22.294Z,19.97
2022-10-20T07:06:27.732Z,19.60
2022-10-20T07:10:28.583Z,20.00
2022-10-20T07:14:32.339Z,18.93
2022-10-20T07:18:33.207Z,20.23
2022-10-20T07:22:36.831Z,19.23
2022-10-20T07:26:40.131Z,18.83
2022-10-20T07:30:42.092Z,19.30
2022-10-20T07:34:43.120Z,19.13
2022-10-20T07:38:44.855Z,17.80
2022-10-20T07:42:45.829Z,19.10
2022-10-20T07:46:46.962Z,18.00
2022-10-20T07:50:48.528Z,18.00
2022-10-20T07:54:49.921Z,19.30
2022-10-20T07:58:51.036Z,19.40
2022-10-20T08:02:52.498Z,21.03
2022-10-20T08:06:54.601Z,20.73
2022-10-20T08:10:57.636Z,23.10
2022-10-20T08:14:59.306Z,26.93
2022-10-20T08:19:07.600Z,25.03
2022-10-20T08:23:08.853Z,21.40
2022-10-20T08:27:10.647Z,20.03
2022-10-20T08:31:11.734Z,21.07
2022-10-20T08:35:12.877Z,21.47
2022-10-20T08:39:16.403Z,23.87
2022-10-20T08:43:19.262Z,22.80
2022-10-20T08:47:30.742Z,22.20
2022-10-20T08:51:33.906Z,22.87
2022-10-20T08:55:34.866Z,24.73
2022-10-20T08:59:39.824Z,24.33
2022-10-20T09:03:42.180Z,24.87
2022-10-20T09:07:44.751Z,24.83
2022-10-20T09:11:47.834Z,24.57
2022-10-20T09:15:52.639Z,23.50
2022-10-20T09:19:57.321Z,28.03
2022-10-20T09:24:04.974Z,24.57
2022-10-20T09:28:09.802Z,25.13
2022-10-20T09:32:45.639Z,25.67
2022-10-20T09:36:29.700Z,26.17
2022-10-20T09:40:31.576Z,25.63
2022-10-20T09:44:36.598Z,26.37
2022-10-20T09:48:40.393Z,31.53
2022-10-20T09:52:46.182Z,27.67
2022-10-20T09:56:49.213Z,26.13
2022-10-20T10:01:00.357Z,25.93
2022-10-20T10:05:18.979Z,26.37
2022-10-20T10:09:37.279Z,26.30
2022-10-20T10:13:42.259Z,27.20
2022-10-20T10:17:43.865Z,26.73
2022-10-20T10:21:48.900Z,28.10
2022-10-20T10:25:51.395Z,29.20
2022-10-20T10:29:54.109Z,28.13
2022-10-20T10:34:14.684Z,28.67
2022-10-20T10:38:15.896Z,29.60
2022-10-20T10:42:32.494Z,27.63
2022-10-20T10:46:36.363Z,31.93
2022-10-20T10:50:59.463Z,30.90
2022-10-20T10:55:04.415Z,32.47
2022-10-20T10:59:27.004Z,28.77
2022-10-20T11:03:39.833Z,36.70
2022-10-20T11:08:15.588Z,31.33
2022-10-20T11:12:43.616Z,30.37
2022-10-20T11:16:48.979Z,32.83
2022-10-20T11:21:11.463Z,32.40
2022-10-20T11:25:39.534Z,32.37
2022-10-20T11:30:00.726Z,34.80
2022-10-20T11:34:08.550Z,32.50
2022-10-20T11:38:16.204Z,34.90
2022-10-20T11:42:49.637Z,30.47
2022-10-20T11:47:09.913Z,30.87
2022-10-20T11:51:27.067Z,33.10
2022-10-20T11:55:43.375Z,29.87
2022-10-20T11:59:54.251Z,31.57
2022-10-20T12:04:05.540Z,31.23
2022-10-20T12:08:36.158Z,29.27
2022-10-20T12:12:37.244Z,30.80
2022-10-20T12:16:54.283Z,31.57
2022-10-20T12:21:02.070Z,33.10
2022-10-20T12:25:07.003Z,30.50
2022-10-20T12:29:31.406Z,32.40
2022-10-20T12:33:51.331Z,35.40
2022-10-20T12:37:58.012Z,34.70
2022-10-20T12:42:05.067Z,34.37
2022-10-20T12:46:14.393Z,34.27
2022-10-20T12:50:33.969Z,36.47
2022-10-20T12:54:39.118Z,37.40
2022-10-20T12:59:03.804Z,36.77
2022-10-20T13:03:09.398Z,36.23
2022-10-20T13:07:11.839Z,35.87
2022-10-20T13:11:38.232Z,39.27
2022-10-20T13:15:47.113Z,38.87
2022-10-20T13:20:01.337Z,39.17
2022-10-20T13:24:08.374Z,36.47
2022-10-20T13:28:17.884Z,37.97
2022-10-20T13:32:35.912Z,37.23
2022-10-20T13:36:51.553Z,39.97
2022-10-20T13:41:05.511Z,39.23
2022-10-20T13:45:13.711Z,39.60
2022-10-20T13:49:21.916Z,36.80
2022-10-20T13:53:30.318Z,35.03
2022-10-20T13:57:36.635Z,36.57
2022-10-20T14:01:38.085Z,38.10
2022-10-20T14:05:39.354Z,37.17
2022-10-20T14:09:45.326Z,37.50
2022-10-20T14:13:44.531Z,39.23
2022-10-20T14:18:02.817Z,38.60
2022-10-20T14:22:16.587Z,37.33
2022-10-20T14:26:20.869Z,38.83
2022-10-20T14:30:23.358Z,39.63
2022-10-20T14:34:30.942Z,37.83
2022-10-20T14:38:37.311Z,40.17
2022-10-20T14:42:42.412Z,39.47
2022-10-20T14:46:48.402Z,41.00
2022-10-20T14:50:49.815Z,42.43
2022-10-20T14:54:51.851Z,41.43
2022-10-20T14:58:59.304Z,45.00
2022-10-20T15:03:05.224Z,47.67
2022-10-20T15:07:13.140Z,45.77
2022-10-20T15:11:23.907Z,45.17
2022-10-20T15:15:27.124Z,51.63
2022-10-20T15:19:34.319Z,50.17
2022-10-20T15:23:35.264Z,51.93
2022-10-20T15:27:39.707Z,48.90
2022-10-20T15:31:42.431Z,55.47
2022-10-20T15:35:46.958Z,53.43
2022-10-20T15:39:47.922Z,57.10
2022-10-20T15:43:49.382Z,50.57
2022-10-20T15:47:50.485Z,49.83
2022-10-20T15:51:51.717Z,48.00
2022-10-20T15:55:52.659Z,51.00
2022-10-20T15:59:53.838Z,53.07
2022-10-20T16:03:55.371Z,53.33
2022-10-20T16:07:56.712Z,58.67
2022-10-20T16:11:57.823Z,59.13
2022-10-20T16:15:59.917Z,59.53
2022-10-20T16:20:01.455Z,55.67
2022-10-20T16:24:03.145Z,56.97
2022-10-20T16:28:04.172Z,58.43
2022-10-20T16:32:05.280Z,57.40
2022-10-20T16:36:09.017Z,56.70
2022-10-20T16:40:10.291Z,63.92
2022-10-20T16:44:12.024Z,63.33
2022-10-20T16:48:13.053Z,58.58
2022-10-20T16:52:14.229Z,54.80
2022-10-20T16:56:18.360Z,51.47
2022-10-20T17:00:18.650Z,56.30
2022-10-20T17:04:22.100Z,54.33
2022-10-20T17:08:23.387Z,53.83
2022-10-20T17:12:24.619Z,50.37
2022-10-20T17:16:29.437Z,49.27
2022-10-20T17:20:30.672Z,52.73
2022-10-20T17:24:31.803Z,50.50
2022-10-20T17:28:35.665Z,51.70
2022-10-20T17:32:36.755Z,56.53
2022-10-20T17:36:38.049Z,62.27
2022-10-20T17:40:40.351Z,66.82
2022-10-20T17:44:42.086Z,64.87
2022-10-20T17:48:43.769Z,69.90
2022-10-20T17:52:45.618Z,73.87
2022-10-20T17:56:51.116Z,64.13
2022-10-20T18:00:56.554Z,59.80
2022-10-20T18:04:55.838Z,74.27
2022-10-20T18:08:59.513Z,69.20
2022-10-20T18:13:00.819Z,60.43
2022-10-20T18:17:02.301Z,68.10
2022-10-20T18:21:05.504Z,69.47
2022-10-20T18:25:07.721Z,80.43
2022-10-20T18:29:10.526Z,63.17
2022-10-20T18:33:11.684Z,59.23
2022-10-20T18:37:15.507Z,57.23
2022-10-20T18:41:19.391Z,61.50
2022-10-20T18:45:23.732Z,66.07
2022-10-20T18:49:23.763Z,58.90
2022-10-20T18:53:27.452Z,60.00
2022-10-20T18:57:32.330Z,54.40
2022-10-20T19:01:36.153Z,59.30
2022-10-20T19:05:38.205Z,57.63
2022-10-20T19:09:39.377Z,65.67
2022-10-20T19:13:40.433Z,70.30
2022-10-20T19:17:41.497Z,58.23
2022-10-20T19:21:43.397Z,64.40
2022-10-20T19:25:44.604Z,54.77
2022-10-20T19:29:45.867Z,56.47
2022-10-20T19:33:49.507Z,62.07
2022-10-20T19:37:51.011Z,60.50
2022-10-20T19:41:55.176Z,61.37
2022-10-20T19:45:58.544Z,64.10
2022-10-20T19:49:59.559Z,58.80
2022-10-20T19:54:01.028Z,65.95
2022-10-20T19:58:02.633Z,67.87
2022-10-20T20:02:04.031Z,64.00
2022-10-20T20:06:08.926Z,66.07
2022-10-20T20:10:10.117Z,71.97
2022-10-20T20:14:18.978Z,74.57
2022-10-20T20:18:20.683Z,73.80
2022-10-20T20:22:21.803Z,85.30
2022-10-20T20:26:23.478Z,83.27
2022-10-20T20:30:24.381Z,81.77
2022-10-20T20:34:25.451Z,92.23
2022-10-20T20:38:27.128Z,81.53
2022-10-20T20:42:28.120Z,76.73
2022-10-20T20:46:30.863Z,76.03
2022-10-20T20:50:32.581Z,75.47
2022-10-20T20:54:33.595Z,71.30
2022-10-20T20:58:34.990Z,76.33
2022-10-20T21:02:36.046Z,71.70
2022-10-20T21:07:00.766Z,74.87
2022-10-20T21:10:41.950Z,65.83
2022-10-20T21:14:43.113Z,64.20
2022-10-20T21:18:47.492Z,60.97
2022-10-20T21:22:48.632Z,66.50
2022-10-20T21:26:51.012Z,67.37
2022-10-20T21:30:52.068Z,63.30
2022-10-20T21:34:54.574Z,60.83
2022-10-20T21:38:55.740Z,59.70
2022-10-20T21:42:56.696Z,61.67
2022-10-20T21:46:57.697Z,58.63
2022-10-20T21:50:58.893Z,58.23
2022-10-20T21:54:59.833Z,55.20
2022-10-20T21:59:00.833Z,53.70
2022-10-20T22:03:02.003Z,55.37
2022-10-20T22:07:03.014Z,60.50
2022-10-20T22:11:06.414Z,56.87
2022-10-20T22:15:08.011Z,58.33
2022-10-20T22:19:12.836Z,54.50
2022-10-20T22:23:14.600Z,51.23
2022-10-20T22:27:25.348Z,50.17
2022-10-20T22:31:18.777Z,53.00
2022-10-20T22:35:19.958Z,58.20
2022-10-20T22:39:20.906Z,55.33
2022-10-20T22:43:21.769Z,53.07
2022-10-20T22:47:22.844Z,54.07
2022-10-20T22:51:23.896Z,51.03
2022-10-20T22:55:24.948Z,50.97
2022-10-20T22:59:26.113Z,52.43
2022-10-20T23:03:27.046Z,48.40
2022-10-20T23:07:28.016Z,46.27
2022-10-20T23:11:29.409Z,50.43
2022-10-20T23:15:30.257Z,47.90
2022-10-20T23:19:31.306Z,48.77
2022-10-20T23:23:35.799Z,47.37
2022-10-20T23:27:37.077Z,46.93
2022-10-20T23:31:38.870Z,42.33
2022-10-20T23:35:40.061Z,45.63
2022-10-20T23:39:40.946Z,44.67
2022-10-20T23:43:42.254Z,47.83
2022-10-20T23:47:43.187Z,45.33
2022-10-20T23:51:44.877Z,46.57
2022-10-20T23:55:46.348Z,54.23
2022-10-20T23:59:47.228Z,41.53
